Time;durP1;ratioP1;P1;durP2;ratioP2;P2;SDS_P1;SDS_P2;PMS_P1;PMS_P2;Temp;Humidity;BMP_temperature;BMP_pressure;BME280_temperature;BME280_humidity;BME280_pressure;Samples;Min_cycle;Max_cycle;Signal;HPM_P1;HPM_P2
2021/11/21 00:01:11;;;;;;;68.63;33.58;;;;;;;3.06;100.00;97780.03;5037756;28;20032;-87
2021/11/21 00:03:37;;;;;;;75.53;36.35;;;;;;;3.09;100.00;97780.81;5053498;28;20024;-87
2021/11/21 00:06:02;;;;;;;71.63;36.65;;;;;;;3.11;100.00;97783.41;5049195;28;20031;-87
2021/11/21 00:08:28;;;;;;;81.13;37.03;;;;;;;3.01;100.00;97787.25;5044294;28;20056;-87
2021/11/21 00:10:54;;;;;;;83.85;39.35;;;;;;;2.92;100.00;97776.94;5045735;28;20074;-86
2021/11/21 00:13:19;;;;;;;82.63;41.78;;;;;;;2.91;100.00;97772.56;5046707;28;20024;-87
2021/11/21 00:15:45;;;;;;;118.07;52.78;;;;;;;3.03;100.00;97774.84;5050416;28;20539;-87
2021/11/21 00:18:11;;;;;;;97.70;45.50;;;;;;;2.97;100.00;97775.03;5054174;28;20025;-87
2021/11/21 00:20:38;;;;;;;112.20;51.88;;;;;;;2.91;100.00;97781.34;5049046;28;20020;-88
2021/11/21 00:23:04;;;;;;;71.20;33.33;;;;;;;2.82;100.00;97781.59;5052688;28;20024;-87
2021/11/21 00:25:30;;;;;;;64.57;31.95;;;;;;;2.72;100.00;97767.78;5049254;28;20047;-87
2021/11/21 00:27:55;;;;;;;53.40;28.05;;;;;;;2.68;100.00;97757.34;5052260;28;20047;-88
2021/11/21 00:30:24;;;;;;;51.45;29.13;;;;;;;2.74;100.00;97770.38;5043364;28;20419;-87
2021/11/21 00:32:49;;;;;;;46.17;23.52;;;;;;;2.70;100.00;97780.19;5048887;28;20495;-87
2021/11/21 00:35:15;;;;;;;42.10;23.25;;;;;;;2.60;100.00;97761.97;5046845;28;20027;-87
2021/11/21 00:37:41;;;;;;;39.30;22.00;;;;;;;2.56;100.00;97779.66;5054474;28;20031;-84
2021/11/21 00:40:08;;;;;;;44.83;24.77;;;;;;;2.61;100.00;97764.59;5056074;28;20461;-87
2021/11/21 00:42:34;;;;;;;41.45;23.25;;;;;;;2.53;100.00;97768.31;5046310;28;20064;-87
2021/11/21 00:45:00;;;;;;;40.97;21.38;;;;;;;2.49;100.00;97766.69;5048949;28;20042;-86
2021/11/21 00:47:25;;;;;;;50.10;23.77;;;;;;;2.52;100.00;97769.25;5043585;28;20024;-87
2021/11/21 00:49:51;;;;;;;51.50;26.52;;;;;;;2.61;100.00;97771.63;5050309;28;20082;-87
2021/11/21 00:52:19;;;;;;;55.30;28.65;;;;;;;2.56;100.00;97771.75;5063107;28;20032;-87
2021/11/21 00:54:57;;;;;;;52.53;25.55;;;;;;;2.53;100.00;97761.25;5050974;28;20438;-87
2021/11/21 00:57:22;;;;;;;56.72;29.52;;;;;;;2.52;100.00;97756.88;5061464;28;20013;-87
2021/11/21 00:59:48;;;;;;;58.13;30.42;;;;;;;2.52;100.00;97759.53;5054382;28;20107;-87
2021/11/21 01:02:15;;;;;;;91.82;39.08;;;;;;;2.60;100.00;97761.97;5045953;28;20141;-87
2021/11/21 01:04:42;;;;;;;99.45;43.92;;;;;;;2.76;100.00;97762.41;5044815;28;20036;-87
2021/11/21 01:07:11;;;;;;;127.28;51.15;;;;;;;2.67;100.00;97748.56;5044683;28;20020;-87
2021/11/21 01:09:37;;;;;;;88.38;39.88;;;;;;;2.55;100.00;97751.50;5053401;28;20070;-86
2021/11/21 01:12:06;;;;;;;101.00;43.70;;;;;;;2.40;100.00;97735.25;5071591;28;20115;-85
2021/11/21 01:14:33;;;;;;;97.82;45.20;;;;;;;2.52;100.00;97732.28;5054937;28;20059;-86
2021/11/21 01:16:58;;;;;;;82.90;39.22;;;;;;;2.44;100.00;97734.25;5052062;28;20035;-88
2021/11/21 01:19:24;;;;;;;77.70;37.60;;;;;;;2.34;100.00;97730.13;5055591;28;20029;-87
2021/11/21 01:21:50;;;;;;;81.57;38.78;;;;;;;2.43;100.00;97729.91;5059916;28;20105;-86
2021/11/21 01:24:15;;;;;;;77.22;37.08;;;;;;;2.41;100.00;97715.84;5052520;28;20503;-86
2021/11/21 01:26:42;;;;;;;70.10;36.50;;;;;;;2.48;100.00;97734.13;5046256;28;20442;-86
2021/11/21 01:29:08;;;;;;;85.38;41.22;;;;;;;2.29;100.00;97727.59;5046889;28;20066;-84
2021/11/21 01:31:33;;;;;;;86.07;43.13;;;;;;;2.11;100.00;97730.72;5052070;28;20028;-86
2021/11/21 01:33:59;;;;;;;77.68;38.58;;;;;;;2.24;100.00;97734.78;5053954;28;20178;-86
2021/11/21 01:36:25;;;;;;;79.10;37.42;;;;;;;2.17;100.00;97730.56;5053648;28;20024;-86
2021/11/21 01:38:50;;;;;;;186.48;32.97;;;;;;;2.30;100.00;97737.28;5054467;28;20040;-87
2021/11/21 01:41:16;;;;;;;465.63;39.38;;;;;;;2.24;100.00;97718.09;5065298;28;20036;-88
2021/11/21 01:43:42;;;;;;;193.73;32.80;;;;;;;2.27;100.00;97733.84;5047190;28;20066;-85
2021/11/21 01:46:09;;;;;;;174.65;31.45;;;;;;;2.35;100.00;97743.28;5059461;28;20028;-86
2021/11/21 01:48:35;;;;;;;263.85;33.75;;;;;;;2.35;100.00;97740.63;5056824;28;20024;-86
2021/11/21 01:51:05;;;;;;;215.07;32.33;;;;;;;2.33;100.00;97728.41;5065057;28;20107;-86
2021/11/21 01:53:30;;;;;;;263.70;37.03;;;;;;;2.35;100.00;97729.22;5061793;28;20024;-88
2021/11/21 01:55:58;;;;;;;135.85;36.53;;;;;;;2.49;100.00;97743.75;5056999;28;20480;-87
2021/11/21 01:58:23;;;;;;;75.80;35.53;;;;;;;2.41;100.00;97737.84;5050812;28;20020;-87
2021/11/21 02:00:50;;;;;;;124.72;37.72;;;;;;;2.36;100.00;97744.16;5045320;28;20047;-87
2021/11/21 02:03:17;;;;;;;100.57;36.40;;;;;;;2.37;100.00;97727.41;5058459;28;20074;-87
2021/11/21 02:05:50;;;;;;;97.40;32.38;;;;;;;2.34;100.00;97730.13;5055375;28;20099;-87
2021/11/21 02:08:16;;;;;;;126.90;32.30;;;;;;;2.23;100.00;97716.34;5046794;28;20041;-87
2021/11/21 02:10:41;;;;;;;151.25;31.83;;;;;;;2.22;100.00;97731.31;5056700;28;20032;-87
2021/11/21 02:13:08;;;;;;;214.43;39.30;;;;;;;2.25;100.00;97704.84;5075990;28;20031;-88
2021/11/21 02:15:36;;;;;;;110.45;35.33;;;;;;;2.30;100.00;97712.66;5051657;28;20027;-89
2021/11/21 02:18:05;;;;;;;102.40;37.03;;;;;;;2.30;100.00;97713.53;5046808;28;20416;-86
2021/11/21 02:20:33;;;;;;;155.13;40.22;;;;;;;2.22;100.00;97711.97;5073271;28;20032;-86
2021/11/21 02:23:01;;;;;;;97.18;35.10;;;;;;;2.17;100.00;97709.47;5066963;28;20507;-87
2021/11/21 02:25:27;;;;;;;141.32;35.40;;;;;;;2.12;100.00;97695.53;5048747;28;20124;-86
2021/11/21 02:27:52;;;;;;;107.65;35.13;;;;;;;1.98;100.00;97687.97;5039585;28;20029;-87
2021/11/21 02:30:18;;;;;;;84.72;34.50;;;;;;;2.10;100.00;97690.28;5047478;28;20024;-88
2021/11/21 02:32:48;;;;;;;84.30;30.20;;;;;;;1.99;100.00;97692.34;5050306;28;20025;-86
2021/11/21 02:35:15;;;;;;;88.43;28.52;;;;;;;1.84;100.00;97692.75;5050138;28;20016;-86
2021/11/21 02:37:41;;;;;;;71.18;27.80;;;;;;;1.63;100.00;97682.75;5045755;28;20402;-87
2021/11/21 02:40:08;;;;;;;53.25;27.88;;;;;;;1.44;100.00;97687.59;5048472;28;20040;-87
2021/11/21 02:42:34;;;;;;;65.18;26.95;;;;;;;1.40;100.00;97691.19;5065656;28;20116;-87
2021/11/21 02:45:01;;;;;;;55.42;28.05;;;;;;;1.33;100.00;97676.41;5042981;28;20028;-87
2021/11/21 02:47:33;;;;;;;54.00;27.27;;;;;;;1.34;100.00;97680.78;5064638;28;20062;-86
2021/11/21 02:50:01;;;;;;;56.08;27.30;;;;;;;1.40;100.00;97672.75;5054363;28;20036;-85
2021/11/21 02:52:27;;;;;;;64.78;27.23;;;;;;;1.46;100.00;97675.22;5045189;28;20112;-86
2021/11/21 02:54:55;;;;;;;57.53;26.63;;;;;;;1.19;100.00;97649.53;5038492;28;20040;-89
2021/11/21 02:57:25;;;;;;;125.85;27.75;;;;;;;1.26;100.00;97677.44;5050189;28;20036;-86
2021/11/21 02:59:52;;;;;;;77.78;27.45;;;;;;;1.39;100.00;97681.53;5035369;28;20500;-87
2021/11/21 03:02:18;;;;;;;130.52;27.35;;;;;;;1.28;100.00;97670.41;5042165;28;20024;-88
2021/11/21 03:04:52;;;;;;;68.38;24.58;;;;;;;1.37;100.00;97679.84;5066776;28;20166;-88
2021/11/21 03:07:19;;;;;;;89.55;26.58;;;;;;;1.34;100.00;97680.78;5045544;28;20119;-86
2021/11/21 03:09:52;;;;;;;123.47;27.60;;;;;;;1.32;100.00;97671.19;5070422;28;20020;-86
2021/11/21 03:12:22;;;;;;;89.60;28.15;;;;;;;1.32;100.00;97669.44;5044922;28;20035;-86
2021/11/21 03:14:49;;;;;;;56.25;27.42;;;;;;;1.32;100.00;97668.56;5044979;28;20476;-87
2021/11/21 03:17:16;;;;;;;70.82;28.70;;;;;;;1.37;100.00;97675.44;5043966;28;20024;-88
2021/11/21 03:19:42;;;;;;;123.93;35.08;;;;;;;1.52;100.00;97669.81;5062133;28;20580;-87
2021/11/21 03:22:08;;;;;;;122.32;37.70;;;;;;;1.51;100.00;97665.44;5039131;28;20123;-89
2021/11/21 03:24:33;;;;;;;85.53;38.58;;;;;;;1.61;100.00;97680.13;5064036;28;20377;-87
2021/11/21 03:26:59;;;;;;;86.53;38.45;;;;;;;1.63;100.00;97666.91;5027920;28;20112;-87
2021/11/21 03:29:25;;;;;;;78.63;35.90;;;;;;;1.60;100.00;97659.94;5068120;28;20025;-88
2021/11/21 03:31:51;;;;;;;86.55;37.38;;;;;;;1.64;100.00;97658.09;5043716;28;20021;-89
2021/11/21 03:34:19;;;;;;;80.13;39.75;;;;;;;1.73;100.00;97664.91;5062934;28;20040;-88
2021/11/21 03:36:45;;;;;;;68.90;32.95;;;;;;;1.61;100.00;97664.31;5046716;28;20031;-88
2021/11/21 03:39:10;;;;;;;68.32;31.77;;;;;;;1.44;100.00;97666.50;5065800;28;20041;-88
2021/11/21 03:41:37;;;;;;;68.80;31.77;;;;;;;1.50;100.00;97676.91;5058089;28;20029;-88
2021/11/21 03:44:04;;;;;;;65.68;28.65;;;;;;;1.39;100.00;97678.91;5063639;28;20020;-88
2021/11/21 03:46:30;;;;;;;55.85;26.95;;;;;;;1.28;100.00;97664.25;5068752;28;20029;-88
2021/11/21 03:48:56;;;;;;;90.63;24.60;;;;;;;1.16;100.00;97654.88;5052276;28;20036;-88
2021/11/21 03:51:21;;;;;;;57.38;22.88;;;;;;;1.14;100.00;97661.09;5063765;28;20401;-88
2021/11/21 03:53:47;;;;;;;96.07;24.70;;;;;;;1.08;100.00;97657.69;5065007;28;20550;-87
2021/11/21 03:56:14;;;;;;;84.35;27.67;;;;;;;0.84;100.00;97649.47;5050782;28;20119;-88
2021/11/21 03:58:39;;;;;;;92.20;25.25;;;;;;;0.95;100.00;97671.19;5044050;28;20029;-87
2021/11/21 04:01:05;;;;;;;67.63;24.50;;;;;;;1.02;100.00;97668.34;5054643;28;20040;-87
2021/11/21 04:03:31;;;;;;;108.70;26.80;;;;;;;1.11;100.00;97676.97;5056212;28;20051;-88
2021/11/21 04:05:56;;;;;;;65.00;27.42;;;;;;;0.97;100.00;97661.47;5051011;28;20059;-88
2021/11/21 04:08:22;;;;;;;98.47;26.98;;;;;;;1.02;100.00;97662.22;5062981;28;20040;-87
2021/11/21 04:10:49;;;;;;;79.07;27.88;;;;;;;1.17;100.00;97666.28;5056563;28;20039;-88
2021/11/21 04:13:15;;;;;;;82.22;28.38;;;;;;;1.12;100.00;97669.00;5041045;28;20033;-86
2021/11/21 04:15:40;;;;;;;69.97;27.13;;;;;;;1.13;100.00;97665.50;5071542;28;20112;-86
2021/11/21 04:18:08;;;;;;;70.47;29.02;;;;;;;1.04;100.00;97656.03;5051569;28;20029;-87
2021/11/21 04:20:36;;;;;;;109.80;27.25;;;;;;;1.21;100.00;97657.38;5069001;28;20035;-88
2021/11/21 04:23:02;;;;;;;91.43;28.95;;;;;;;1.25;100.00;97659.94;5066197;28;20059;-87
2021/11/21 04:25:28;;;;;;;149.20;31.30;;;;;;;1.29;100.00;97674.78;5065564;28;20052;-86
2021/11/21 04:27:53;;;;;;;204.43;33.78;;;;;;;1.10;100.00;97657.66;5045405;28;20029;-86
2021/11/21 04:30:19;;;;;;;62.47;28.50;;;;;;;1.12;100.00;97650.56;5052561;28;20029;-87
2021/11/21 04:32:46;;;;;;;193.70;33.72;;;;;;;1.26;100.00;97666.06;5060320;28;20033;-87
2021/11/21 04:35:16;;;;;;;185.13;32.35;;;;;;;1.45;100.00;97669.97;5062280;28;20457;-88
2021/11/21 04:37:41;;;;;;;295.00;37.47;;;;;;;1.57;100.00;97669.69;5048686;28;20043;-88
2021/11/21 04:40:08;;;;;;;250.32;34.30;;;;;;;1.60;100.00;97657.28;5064177;28;20512;-88
2021/11/21 04:42:34;;;;;;;194.02;33.65;;;;;;;1.71;100.00;97657.03;5055020;28;20036;-88
2021/11/21 04:45:00;;;;;;;244.90;75.25;;;;;;;1.66;100.00;97644.88;5056561;28;20442;-88
2021/11/21 04:47:26;;;;;;;117.43;37.47;;;;;;;1.68;100.00;97654.47;5072471;28;20041;-88
2021/11/21 04:49:52;;;;;;;324.48;37.03;;;;;;;1.53;100.00;97639.94;5067425;28;20020;-87
2021/11/21 04:52:18;;;;;;;201.85;34.78;;;;;;;1.67;100.00;97643.97;5050667;28;20036;-88
2021/11/21 04:54:43;;;;;;;243.13;36.03;;;;;;;1.71;100.00;97654.41;5067006;28;20029;-88
2021/11/21 04:57:09;;;;;;;319.20;40.47;;;;;;;1.71;100.00;97643.00;5060483;28;20468;-88
2021/11/21 04:59:35;;;;;;;255.50;38.10;;;;;;;1.76;100.00;97641.09;5055300;28;20351;-88
2021/11/21 05:02:02;;;;;;;521.70;45.63;;;;;;;1.77;100.00;97648.09;5050098;28;20036;-87
2021/11/21 05:04:28;;;;;;;289.00;42.85;;;;;;;1.61;100.00;97629.16;5052192;28;20033;-85
2021/11/21 05:06:53;;;;;;;270.88;37.05;;;;;;;1.51;100.00;97644.34;5069063;28;20025;-87
2021/11/21 05:09:38;;;;;;;253.40;37.72;;;;;;;1.63;100.00;97646.69;5040770;28;20106;-87
2021/11/21 05:12:04;;;;;;;305.73;41.08;;;;;;;1.61;100.00;97626.53;5073530;28;20029;-87
2021/11/21 05:14:30;;;;;;;432.00;44.20;;;;;;;1.55;100.00;97619.66;5069783;28;20025;-88
2021/11/21 05:16:56;;;;;;;189.77;31.35;;;;;;;1.63;100.00;97625.59;5041289;28;20110;-88
2021/11/21 05:19:21;;;;;;;349.70;40.88;;;;;;;1.64;100.00;97631.72;5051800;28;20484;-88
2021/11/21 05:21:47;;;;;;;216.30;32.95;;;;;;;1.65;100.00;97633.47;5041068;28;20044;-87
2021/11/21 05:24:13;;;;;;;217.18;40.10;;;;;;;1.67;100.00;97638.69;5040299;28;20033;-88
2021/11/21 05:26:39;;;;;;;178.68;37.35;;;;;;;1.63;100.00;97625.59;5046872;28;20028;-87
2021/11/21 05:29:04;;;;;;;236.40;36.67;;;;;;;1.55;100.00;97618.78;5069144;28;20094;-87
2021/11/21 05:31:32;;;;;;;106.38;32.45;;;;;;;1.68;100.00;97614.06;5038708;28;20467;-86
2021/11/21 05:33:57;;;;;;;272.65;34.03;;;;;;;1.55;100.00;97590.66;5074159;28;20028;-89
2021/11/21 05:36:23;;;;;;;194.90;31.77;;;;;;;1.58;100.00;97603.75;5046734;28;20027;-88
2021/11/21 05:38:48;;;;;;;257.23;33.65;;;;;;;1.58;100.00;97611.69;5068278;28;20047;-88
2021/11/21 05:41:14;;;;;;;176.93;33.78;;;;;;;1.47;100.00;97597.91;5048524;28;20033;-89
2021/11/21 05:43:40;;;;;;;188.65;34.50;;;;;;;1.48;100.00;97602.25;5050568;28;20067;-87
2021/11/21 05:46:05;;;;;;;169.48;33.55;;;;;;;1.60;100.00;97603.72;5073450;28;20093;-88
2021/11/21 05:48:31;;;;;;;312.20;35.28;;;;;;;1.58;100.00;97613.44;5037096;28;20037;-88
2021/11/21 05:50:57;;;;;;;280.58;39.10;;;;;;;1.52;100.00;97610.97;5052310;28;20032;-87
2021/11/21 05:53:23;;;;;;;144.10;33.92;;;;;;;1.54;100.00;97602.09;5048764;28;20123;-88
2021/11/21 05:55:49;;;;;;;171.48;38.35;;;;;;;1.58;100.00;97606.41;5048115;28;20055;-87
2021/11/21 05:58:18;;;;;;;134.85;32.15;;;;;;;1.55;100.00;97621.41;5067640;28;20032;-87
2021/11/21 06:00:44;;;;;;;175.75;36.55;;;;;;;1.45;100.00;97594.44;5050402;28;20028;-88
2021/11/21 06:03:10;;;;;;;259.20;39.92;;;;;;;1.49;100.00;97600.50;5065988;28;20060;-87
2021/11/21 06:05:36;;;;;;;161.20;40.30;;;;;;;1.51;100.00;97591.63;5070474;28;20067;-87
2021/11/21 06:08:06;;;;;;;179.10;42.83;;;;;;;1.75;100.00;97610.38;5041573;28;20041;-87
2021/11/21 06:10:32;;;;;;;188.25;47.75;;;;;;;1.66;100.00;97592.16;5045487;28;20024;-87
2021/11/21 06:12:57;;;;;;;210.30;49.28;;;;;;;1.89;100.00;97595.03;5063698;28;20107;-88
2021/11/21 06:15:23;;;;;;;189.98;48.35;;;;;;;1.95;100.00;97605.44;5047878;28;20052;-88
2021/11/21 06:17:48;;;;;;;150.88;46.33;;;;;;;2.04;100.00;97621.00;5042448;28;20046;-88
2021/11/21 06:20:14;;;;;;;178.95;43.30;;;;;;;2.21;100.00;97604.72;5037824;28;20048;-88
2021/11/21 06:22:40;;;;;;;118.53;43.40;;;;;;;2.34;100.00;97612.22;5051631;28;20064;-90
2021/11/21 06:25:07;;;;;;;157.25;37.30;;;;;;;2.31;100.00;97588.56;5063914;28;20408;-90
2021/11/21 06:27:33;;;;;;;286.00;106.95;;;;;;;2.64;100.00;97606.09;5050269;28;20552;-88
2021/11/21 06:30:04;;;;;;;196.95;55.35;;;;;;;2.54;100.00;97606.38;5068225;28;20079;-88
2021/11/21 06:32:29;;;;;;;331.92;73.95;;;;;;;2.58;100.00;97627.38;5072686;28;20028;-88
2021/11/21 06:34:55;;;;;;;221.63;74.93;;;;;;;2.67;100.00;97619.19;5068786;28;20040;-87
2021/11/21 06:37:21;;;;;;;282.42;87.32;;;;;;;2.83;100.00;97608.16;5047297;28;20392;-87
2021/11/21 06:39:47;;;;;;;344.95;123.32;;;;;;;2.97;100.00;97605.94;5049134;28;20076;-89
2021/11/21 06:42:13;;;;;;;262.13;91.95;;;;;;;2.78;100.00;97589.81;5039648;28;20444;-90
2021/11/21 06:44:39;;;;;;;280.02;74.25;;;;;;;2.84;100.00;97607.22;5053901;28;20027;-90
2021/11/21 06:47:05;;;;;;;277.25;60.80;;;;;;;2.84;100.00;97602.81;5045057;28;20025;-87
2021/11/21 06:49:31;;;;;;;206.10;54.72;;;;;;;2.85;100.00;97595.75;5046891;28;20407;-87
2021/11/21 06:51:57;;;;;;;145.95;41.15;;;;;;;2.80;100.00;97603.81;5047554;28;20027;-89
2021/11/21 06:54:23;;;;;;;259.20;42.83;;;;;;;3.11;100.00;97609.00;5053794;28;20102;-91
2021/11/21 06:56:49;;;;;;;108.10;35.72;;;;;;;3.05;100.00;97590.72;5060721;28;20020;-90
2021/11/21 06:59:14;;;;;;;98.65;38.33;;;;;;;3.00;100.00;97571.50;5040712;28;20132;-91
2021/11/21 07:01:41;;;;;;;154.02;40.72;;;;;;;3.07;100.00;97567.78;5070303;28;20107;-89
2021/11/21 07:04:14;;;;;;;108.57;38.28;;;;;;;2.93;100.00;97504.81;5062946;28;20040;-90
2021/11/21 07:07:00;;;;;;;131.27;35.85;;;;;;;3.67;100.00;97510.19;5045289;28;20024;-89
2021/11/21 07:09:52;;;;;;;72.90;28.35;;;;;;;5.00;100.00;97572.25;5068122;28;20139;-89
2021/11/21 07:12:21;;;;;;;104.82;27.77;;;;;;;5.20;100.00;97559.09;5058153;28;20515;-92
2021/11/21 07:14:52;;;;;;;133.90;26.77;;;;;;;5.78;94.76;97515.06;5049334;28;20028;-90
2021/11/21 07:17:18;;;;;;;51.20;22.20;;;;;;;7.45;84.11;97535.50;5051481;28;20519;-79
2021/11/21 07:19:43;;;;;;;48.22;23.20;;;;;;;8.55;77.63;97571.50;5063875;28;20053;-77
2021/11/21 07:22:09;;;;;;;70.80;24.05;;;;;;;8.93;74.07;97566.78;5057576;28;20041;-76
2021/11/21 07:24:35;;;;;;;54.88;24.38;;;;;;;8.98;71.91;97561.19;5052902;28;20033;-78
2021/11/21 07:27:01;;;;;;;49.53;23.63;;;;;;;8.75;72.96;97573.13;5063984;28;20028;-77
2021/11/21 07:29:28;;;;;;;71.95;27.63;;;;;;;9.35;70.93;97555.50;5036535;28;20048;-76
2021/11/21 07:31:56;;;;;;;65.78;32.13;;;;;;;10.00;68.33;97565.03;5035742;28;20029;-78
2021/11/21 07:34:22;;;;;;;63.63;28.30;;;;;;;11.24;64.43;97553.75;5053723;28;20028;-77
2021/11/21 07:36:47;;;;;;;75.20;37.47;;;;;;;12.32;59.92;97556.28;5054975;28;20082;-75
2021/11/21 07:39:13;;;;;;;78.32;36.13;;;;;;;12.78;56.84;97535.16;5061422;28;20036;-76
2021/11/21 07:41:39;;;;;;;73.35;35.83;;;;;;;12.47;56.65;97546.31;5052566;28;20037;-77
2021/11/21 07:44:07;;;;;;;103.55;44.85;;;;;;;12.95;54.78;97540.16;5066809;28;20036;-77
2021/11/21 07:46:33;;;;;;;121.47;56.20;;;;;;;12.86;54.79;97534.59;5037480;28;20395;-77
2021/11/21 07:48:58;;;;;;;73.88;40.75;;;;;;;11.29;58.65;97539.09;5062746;28;20502;-76
2021/11/21 07:51:24;;;;;;;105.32;54.33;;;;;;;11.22;60.12;97544.97;5041340;28;20036;-77
2021/11/21 07:53:50;;;;;;;148.77;73.93;;;;;;;11.90;58.50;97551.16;5065527;28;20032;-76
2021/11/21 07:56:17;;;;;;;145.07;70.72;;;;;;;12.63;56.98;97535.38;5034144;28;20033;-76
2021/11/21 07:58:43;;;;;;;106.07;47.88;;;;;;;12.86;54.31;97527.41;5042173;28;20041;-76
2021/11/21 08:01:09;;;;;;;92.57;48.55;;;;;;;13.10;53.24;97513.22;5038879;28;20115;-77
2021/11/21 08:03:34;;;;;;;102.13;49.13;;;;;;;13.55;52.58;97532.19;5055239;28;20059;-77
2021/11/21 08:06:00;;;;;;;102.63;52.10;;;;;;;13.80;52.01;97522.31;5050782;28;20429;-77
2021/11/21 08:08:26;;;;;;;116.28;59.55;;;;;;;14.35;51.28;97516.28;5042292;28;20036;-78
2021/11/21 08:10:51;;;;;;;127.65;66.22;;;;;;;14.79;49.97;97512.81;5051474;28;20111;-77
2021/11/21 08:13:18;;;;;;;118.28;62.90;;;;;;;15.41;48.18;97505.88;5034003;28;20032;-78
2021/11/21 08:15:46;;;;;;;105.78;58.05;;;;;;;15.43;47.99;97503.94;5065135;28;20017;-77
2021/11/21 08:18:12;;;;;;;100.45;53.08;;;;;;;16.06;46.81;97505.81;5064342;28;20021;-78
2021/11/21 08:20:38;;;;;;;87.75;50.08;;;;;;;15.82;47.04;97513.28;5036284;28;20032;-79
2021/11/21 08:23:04;;;;;;;82.90;46.55;;;;;;;16.01;47.40;97512.59;5032416;28;20032;-77
2021/11/21 08:25:29;;;;;;;85.32;47.72;;;;;;;16.43;46.37;97508.94;5057071;28;20573;-79
2021/11/21 08:27:55;;;;;;;76.05;43.80;;;;;;;16.27;46.92;97519.34;5066766;28;20519;-77
2021/11/21 08:30:22;;;;;;;66.93;40.47;;;;;;;17.14;45.77;97499.09;5033662;28;20123;-78
2021/11/21 08:32:48;;;;;;;64.78;38.58;;;;;;;16.77;46.00;97498.78;5036135;28;20106;-78
2021/11/21 08:35:14;;;;;;;60.20;36.35;;;;;;;17.05;45.56;97499.91;5063002;28;20539;-77
2021/11/21 08:37:41;;;;;;;64.45;39.15;;;;;;;17.09;45.50;97487.84;5042012;28;20444;-77
2021/11/21 08:40:08;;;;;;;61.72;38.30;;;;;;;17.67;44.44;97491.59;4999123;28;1278558;-77
2021/11/21 08:42:34;;;;;;;69.28;41.85;;;;;;;18.12;43.48;97472.97;5062519;28;20025;-77
2021/11/21 08:45:00;;;;;;;67.47;40.97;;;;;;;18.04;43.84;97483.63;5050923;28;20245;-76
2021/11/21 08:47:25;;;;;;;63.25;39.45;;;;;;;18.31;43.67;97476.50;5069341;28;20454;-76
2021/11/21 08:49:51;;;;;;;69.55;45.20;;;;;;;17.66;44.93;97476.34;5036391;28;20120;-76
2021/11/21 08:52:17;;;;;;;71.90;44.83;;;;;;;17.95;43.82;97479.94;5057638;28;20024;-76
2021/11/21 08:54:43;;;;;;;67.22;40.50;;;;;;;18.36;43.41;97484.19;5040374;28;20017;-77
2021/11/21 08:57:09;;;;;;;65.20;42.05;;;;;;;18.72;42.49;97458.19;5044159;28;20102;-76
2021/11/21 08:59:35;;;;;;;62.88;41.13;;;;;;;19.45;41.82;97465.44;5061306;28;20021;-77
2021/11/21 09:02:00;;;;;;;56.17;35.35;;;;;;;19.88;40.41;97445.69;5032377;28;20029;-75
2021/11/21 09:04:26;;;;;;;56.05;37.20;;;;;;;19.50;41.18;97444.16;5044780;28;20036;-77
2021/11/21 09:06:51;;;;;;;57.50;37.67;;;;;;;20.25;40.03;97446.38;5052021;28;20025;-77
2021/11/21 09:09:17;;;;;;;54.17;36.13;;;;;;;20.98;38.62;97434.16;5055972;28;20459;-77
2021/11/21 09:11:43;;;;;;;51.60;35.15;;;;;;;21.37;37.79;97429.09;5048275;28;20028;-77
2021/11/21 09:14:08;;;;;;;45.80;32.00;;;;;;;21.10;38.25;97428.47;5042553;28;20033;-78
2021/11/21 09:16:34;;;;;;;43.40;29.98;;;;;;;21.11;38.01;97424.72;5051096;28;20031;-78
2021/11/21 09:19:04;;;;;;;59.05;37.15;;;;;;;21.31;38.73;97413.44;5025327;28;20067;-80
2021/11/21 09:21:30;;;;;;;49.97;33.25;;;;;;;22.04;37.04;97406.28;5036342;28;20037;-76
2021/11/21 09:23:56;;;;;;;47.72;32.80;;;;;;;21.67;37.82;97397.69;5031767;28;20463;-77
2021/11/21 09:26:21;;;;;;;44.85;31.80;;;;;;;22.49;36.26;97394.81;5034213;28;20543;-76
2021/11/21 09:28:47;;;;;;;49.97;31.33;;;;;;;22.21;36.63;97381.75;5069806;28;20028;-77
2021/11/21 09:31:12;;;;;;;40.30;27.65;;;;;;;21.51;37.26;97386.75;5069428;28;20515;-77
2021/11/21 09:33:38;;;;;;;33.53;21.60;;;;;;;21.86;37.56;97374.72;5069646;28;20075;-76
2021/11/21 09:36:05;;;;;;;31.27;21.90;;;;;;;22.74;35.98;97370.25;5038345;28;20024;-76
2021/11/21 09:38:31;;;;;;;24.80;17.85;;;;;;;23.71;34.63;97376.13;5040137;28;20103;-77
2021/11/21 09:40:57;;;;;;;32.63;20.73;;;;;;;23.75;34.79;97350.13;5035401;28;20033;-75
2021/11/21 09:43:22;;;;;;;51.10;25.60;;;;;;;22.77;36.54;97357.13;5034735;28;20109;-76
2021/11/21 09:45:49;;;;;;;23.35;16.42;;;;;;;23.40;35.04;97356.19;5049938;28;20057;-78
2021/11/21 09:48:15;;;;;;;24.17;15.10;;;;;;;24.04;34.42;97344.78;5022551;28;20025;-78
2021/11/21 09:50:43;;;;;;;22.48;15.93;;;;;;;22.39;36.80;97358.72;5023245;28;20064;-76
2021/11/21 09:53:11;;;;;;;19.95;14.40;;;;;;;22.39;36.83;97341.53;5029337;28;20116;-77
2021/11/21 09:55:37;;;;;;;20.45;15.15;;;;;;;23.77;35.18;97337.16;5026142;28;20033;-76
2021/11/21 09:58:03;;;;;;;20.65;15.10;;;;;;;24.59;33.36;97329.94;5033532;28;20025;-77
2021/11/21 10:00:30;;;;;;;17.80;13.57;;;;;;;23.66;34.04;97322.03;5042294;28;20028;-74
2021/11/21 10:03:13;;;;;;;19.77;12.88;;;;;;;24.10;33.36;97313.13;5011813;28;20034;-81
2021/11/21 10:05:43;;;;;;;24.55;16.00;;;;;;;24.60;33.03;97315.22;5044532;28;20053;-78
2021/11/21 10:08:13;;;;;;;29.08;19.67;;;;;;;24.64;32.55;97297.41;5028663;28;20186;-78
2021/11/21 10:10:47;;;;;;;33.22;21.05;;;;;;;25.39;31.97;97286.16;5029694;28;20053;-77
2021/11/21 10:13:27;;;;;;;27.60;19.73;;;;;;;26.00;31.20;97280.03;5031976;28;20032;-77
2021/11/21 10:15:54;;;;;;;28.48;20.45;;;;;;;26.59;30.09;97279.66;5037058;28;20555;-79
2021/11/21 10:18:20;;;;;;;15.85;10.48;;;;;;;25.81;28.80;97258.78;5025416;28;20039;-81
2021/11/21 10:20:46;;;;;;;11.15;6.95;;;;;;;24.76;30.07;97257.56;5033427;28;20089;-81
2021/11/21 10:23:12;;;;;;;7.20;4.95;;;;;;;23.37;32.16;97252.78;5041004;28;20064;-79
2021/11/21 10:25:44;;;;;;;11.50;6.65;;;;;;;23.51;32.52;97258.31;5020423;28;20037;-80
2021/11/21 10:28:20;;;;;;;13.43;7.68;;;;;;;24.31;30.56;97249.56;5012284;28;20029;-80
2021/11/21 10:31:00;;;;;;;8.15;5.47;;;;;;;23.00;32.24;97248.94;5030301;28;20128;-80
2021/11/21 10:33:31;;;;;;;9.63;6.65;;;;;;;23.08;32.78;97243.41;5047832;28;20035;-78
2021/11/21 10:35:58;;;;;;;11.18;7.45;;;;;;;22.45;34.14;97245.41;5038092;28;20025;-81
2021/11/21 10:38:41;;;;;;;14.27;6.90;;;;;;;21.91;35.10;97242.47;5053419;28;20059;-80
2021/11/21 10:41:10;;;;;;;11.07;6.78;;;;;;;21.84;34.58;97222.38;5048938;28;20110;-80
2021/11/21 10:43:45;;;;;;;12.35;7.00;;;;;;;21.36;35.87;97230.56;5051491;28;20024;-80
2021/11/21 10:46:37;;;;;;;18.02;8.85;;;;;;;21.21;35.90;97233.13;5043120;28;20115;-81
2021/11/21 10:49:13;;;;;;;15.77;10.40;;;;;;;20.82;36.40;97232.88;5064739;28;20238;-78
2021/11/21 10:51:39;;;;;;;13.10;7.40;;;;;;;21.33;35.94;97220.03;5064289;28;20067;-80
2021/11/21 10:54:18;;;;;;;11.02;6.90;;;;;;;21.31;35.82;97208.47;5044092;28;20416;-82
2021/11/21 10:56:49;;;;;;;14.50;9.57;;;;;;;21.52;36.05;97203.38;5033487;28;20025;-80
2021/11/21 10:59:15;;;;;;;12.07;7.35;;;;;;;21.91;35.04;97190.72;5036786;28;20040;-79
2021/11/21 11:01:44;;;;;;;15.02;7.97;;;;;;;22.32;34.58;97202.34;5057540;28;20554;-80
2021/11/21 11:04:13;;;;;;;10.65;7.50;;;;;;;22.59;33.18;97174.63;5062330;28;20570;-82
2021/11/21 11:06:40;;;;;;;9.85;6.32;;;;;;;22.42;34.14;97180.34;5040494;28;20036;-79
2021/11/21 11:09:23;;;;;;;8.68;6.05;;;;;;;22.95;33.33;97164.00;5047076;28;20055;-81
2021/11/21 11:11:50;;;;;;;6.43;5.30;;;;;;;23.19;32.75;97147.44;5034520;28;20071;-87
2021/11/21 11:14:19;;;;;;;11.30;6.80;;;;;;;22.72;33.42;97149.53;5041215;28;20636;-79